Time;durP1;ratioP1;P1;durP2;ratioP2;P2;SDS_P1;SDS_P2;PMS_P1;PMS_P2;Temp;Humidity;BMP_temperature;BMP_pressure;BME280_temperature;BME280_humidity;BME280_pressure;Samples;Min_cycle;Max_cycle;Signal;HPM_P1;HPM_P2
2021/10/07 00:00:48;;;;;;;7.97;1.20;;;23.70;67.80;;;;;;5090267;28;20178;-74
2021/10/07 00:03:15;;;;;;;4.97;1.30;;;24.00;66.50;;;;;;5095964;28;20565;-74
2021/10/07 00:05:43;;;;;;;3.83;1.10;;;24.20;65.40;;;;;;5104677;28;20177;-74
2021/10/07 00:08:10;;;;;;;3.83;0.97;;;24.20;64.90;;;;;;5088726;28;20640;-74
2021/10/07 00:10:38;;;;;;;4.70;1.17;;;24.30;64.70;;;;;;5100128;28;20173;-73
2021/10/07 00:13:05;;;;;;;5.13;1.50;;;24.50;64.90;;;;;;5095597;28;20214;-74
2021/10/07 00:15:33;;;;;;;2.97;1.33;;;24.70;64.50;;;;;;5094998;28;20187;-76
2021/10/07 00:18:00;;;;;;;4.73;1.00;;;24.70;62.70;;;;;;5094797;28;20163;-72
2021/10/07 00:20:27;;;;;;;2.97;1.07;;;24.70;62.60;;;;;;5095662;28;20182;-77
2021/10/07 00:22:55;;;;;;;3.97;1.30;;;24.60;62.60;;;;;;5111805;28;20181;-70
2021/10/07 00:25:22;;;;;;;7.63;1.20;;;24.80;64.00;;;;;;5094546;28;20171;-73
2021/10/07 00:27:50;;;;;;;6.17;1.33;;;25.10;62.70;;;;;;5075022;28;20229;-76
2021/10/07 00:30:19;;;;;;;7.23;1.30;;;25.20;62.60;;;;;;5090161;28;20667;-72
2021/10/07 00:35:46;;;;;;;3.50;1.20;;;25.20;61.80;;;;;;5095181;28;20182;-73
2021/10/07 00:40:58;;;;;;;2.67;1.07;;;25.50;61.50;;;;;;5084517;28;20228;-76
2021/10/07 00:43:26;;;;;;;6.73;1.17;;;25.40;61.70;;;;;;5090948;28;20196;-73
2021/10/07 00:45:56;;;;;;;3.93;1.10;;;25.50;61.40;;;;;;5098297;28;20192;-73
2021/10/07 00:48:24;;;;;;;6.37;1.00;;;25.70;61.60;;;;;;5095000;28;20177;-74
2021/10/07 00:50:51;;;;;;;2.90;1.10;;;25.70;61.40;;;;;;5105788;28;20535;-71
2021/10/07 00:53:20;;;;;;;7.63;1.87;;;25.90;61.90;;;;;;5075824;28;20217;-76
2021/10/07 00:55:48;;;;;;;4.90;1.40;;;25.90;61.10;;;;;;5089621;28;20174;-76
2021/10/07 00:58:16;;;;;;;5.00;1.10;;;26.00;61.30;;;;;;5093538;28;20167;-68
2021/10/07 01:00:44;;;;;;;8.60;1.20;;;25.90;61.10;;;;;;5092070;28;20245;-71
2021/10/07 01:03:13;;;;;;;4.23;1.40;;;26.10;60.50;;;;;;5081049;28;20186;-72
2021/10/07 01:05:40;;;;;;;7.53;1.10;;;26.50;61.20;;;;;;5091476;28;20698;-72
2021/10/07 01:08:08;;;;;;;1.10;0.80;;;26.80;60.20;;;;;;5085087;28;20197;-72
2021/10/07 01:10:35;;;;;;;8.00;1.23;;;26.70;59.80;;;;;;5080716;28;20209;-72
2021/10/07 01:13:04;;;;;;;4.40;1.00;;;26.90;59.90;;;;;;5085618;28;20273;-72
2021/10/07 01:15:32;;;;;;;3.90;1.20;;;26.70;59.60;;;;;;5091061;28;20591;-75
2021/10/07 01:17:59;;;;;;;8.17;1.30;;;27.00;59.80;;;;;;5091565;28;20645;-74
2021/10/07 01:20:27;;;;;;;5.50;1.10;;;27.30;59.90;;;;;;5091718;28;20194;-75
2021/10/07 01:22:54;;;;;;;7.13;1.53;;;27.50;59.10;;;;;;5088132;28;20191;-71
2021/10/07 01:25:22;;;;;;;3.97;1.00;;;27.10;58.70;;;;;;5093478;28;20182;-75
2021/10/07 01:27:56;;;;;;;3.30;0.90;;;27.10;58.90;;;;;;5080523;28;20185;-73
2021/10/07 01:30:23;;;;;;;3.23;1.03;;;27.10;57.80;;;;;;5094558;28;20182;-72
2021/10/07 01:32:55;;;;;;;2.73;1.00;;;27.30;58.90;;;;;;5082253;28;20187;-77
2021/10/07 01:35:22;;;;;;;5.27;1.00;;;27.30;58.00;;;;;;5093479;28;20198;-71
2021/10/07 01:37:50;;;;;;;6.43;1.40;;;27.70;57.70;;;;;;5089077;28;20265;-73
2021/10/07 01:40:18;;;;;;;7.60;1.30;;;27.90;57.10;;;;;;5086330;28;20267;-75
2021/10/07 01:42:46;;;;;;;3.87;0.90;;;28.10;57.30;;;;;;5093207;28;20194;-72
2021/10/07 01:45:14;;;;;;;7.40;0.93;;;28.40;56.50;;;;;;5089504;28;20186;-73
2021/10/07 01:47:42;;;;;;;2.80;1.10;;;28.50;56.50;;;;;;5088239;28;20194;-72
2021/10/07 01:50:12;;;;;;;3.20;0.97;;;28.40;57.00;;;;;;5092993;28;20251;-74
2021/10/07 01:52:40;;;;;;;2.50;0.97;;;28.70;56.10;;;;;;5089773;28;20691;-74
2021/10/07 01:55:10;;;;;;;3.57;0.90;;;28.70;55.20;;;;;;5091228;28;20629;-75
2021/10/07 01:57:38;;;;;;;4.87;1.10;;;28.80;55.50;;;;;;5086104;28;20179;-74
2021/10/07 02:00:08;;;;;;;4.13;0.90;;;28.90;55.10;;;;;;5083711;28;20207;-73
2021/10/07 02:02:35;;;;;;;3.77;1.00;;;29.10;54.60;;;;;;5092033;28;20167;-74
2021/10/07 02:05:03;;;;;;;7.40;1.57;;;28.80;55.40;;;;;;5089145;28;20177;-73
2021/10/07 02:07:30;;;;;;;3.70;1.37;;;29.30;55.00;;;;;;5091459;28;20648;-75
2021/10/07 02:09:58;;;;;;;2.20;1.00;;;29.50;54.30;;;;;;5090330;28;20239;-74
2021/10/07 02:12:25;;;;;;;5.70;1.20;;;29.70;54.10;;;;;;5089721;28;20268;-73
2021/10/07 02:14:53;;;;;;;11.87;1.27;;;29.90;53.20;;;;;;5091998;28;20195;-73
2021/10/07 02:17:20;;;;;;;7.57;1.10;;;30.20;53.20;;;;;;5088766;28;20175;-73
2021/10/07 02:19:47;;;;;;;3.50;1.00;;;30.30;53.10;;;;;;5082112;28;20305;-74
2021/10/07 02:22:15;;;;;;;5.27;1.13;;;30.50;52.20;;;;;;5086424;28;20174;-73
2021/10/07 02:24:45;;;;;;;5.43;1.00;;;30.50;51.80;;;;;;5087813;28;20209;-76
2021/10/07 02:27:12;;;;;;;4.88;0.90;;;30.70;50.40;;;;;;5090954;28;20179;-75
2021/10/07 02:29:39;;;;;;;2.90;0.85;;;30.50;49.80;;;;;;5085784;28;20222;-78
2021/10/07 02:32:07;;;;;;;4.77;1.90;;;30.30;50.50;;;;;;5087770;28;20186;-74
2021/10/07 02:34:35;;;;;;;4.97;0.88;;;30.70;51.00;;;;;;5090560;28;20269;-75
2021/10/07 02:37:02;;;;;;;5.25;1.10;;;30.60;50.60;;;;;;5088809;28;20244;-74
2021/10/07 02:39:29;;;;;;;3.47;1.02;;;30.90;51.00;;;;;;5092335;28;20268;-72
2021/10/07 02:41:57;;;;;;;4.80;1.07;;;30.90;50.50;;;;;;5089599;28;20174;-78
2021/10/07 02:44:24;;;;;;;3.57;0.80;;;30.90;49.50;;;;;;5084552;28;20186;-72
2021/10/07 02:46:52;;;;;;;2.75;0.90;;;31.20;49.70;;;;;;5088322;28;20258;-70
2021/10/07 02:49:19;;;;;;;3.28;1.35;;;31.50;48.60;;;;;;5092111;28;20289;-73
2021/10/07 02:51:46;;;;;;;6.40;0.95;;;31.10;49.20;;;;;;5088933;28;20652;-73
2021/10/07 02:54:14;;;;;;;3.33;0.90;;;31.30;50.40;;;;;;5090467;28;20197;-70
2021/10/07 02:56:41;;;;;;;5.10;1.02;;;31.60;49.40;;;;;;5085320;28;20190;-73
2021/10/07 02:59:09;;;;;;;9.15;1.48;;;32.40;49.50;;;;;;5085748;28;20365;-75
2021/10/07 03:01:36;;;;;;;2.85;0.93;;;32.70;48.90;;;;;;5088966;28;20224;-74
2021/10/07 03:04:04;;;;;;;2.33;0.80;;;32.60;48.60;;;;;;5090702;28;20258;-71
2021/10/07 03:06:31;;;;;;;6.70;1.23;;;32.70;49.20;;;;;;5092225;28;20204;-72
2021/10/07 03:08:58;;;;;;;3.53;1.00;;;32.10;48.50;;;;;;5090544;28;20178;-72
2021/10/07 03:11:26;;;;;;;5.00;1.20;;;32.20;48.40;;;;;;5080689;28;20223;-71
2021/10/07 03:13:53;;;;;;;4.40;0.90;;;32.60;48.40;;;;;;5090603;28;20179;-72
2021/10/07 03:16:21;;;;;;;2.53;0.88;;;32.80;47.90;;;;;;5090131;28;20672;-75
2021/10/07 03:18:48;;;;;;;3.05;1.23;;;32.80;47.90;;;;;;5090902;28;20221;-68
2021/10/07 03:21:15;;;;;;;2.88;1.02;;;32.80;47.10;;;;;;5088063;28;20170;-70
2021/10/07 03:23:43;;;;;;;9.57;1.25;;;33.00;46.00;;;;;;5092048;28;20209;-73
2021/10/07 03:26:10;;;;;;;8.73;1.65;;;33.00;47.10;;;;;;5090087;28;20178;-70
2021/10/07 03:28:37;;;;;;;5.93;1.20;;;32.70;46.80;;;;;;5080888;28;20546;-73
2021/10/07 03:31:05;;;;;;;6.80;1.45;;;32.60;47.20;;;;;;5080629;28;20198;-75
2021/10/07 03:33:32;;;;;;;2.85;1.27;;;32.80;47.50;;;;;;5079061;28;20168;-72
2021/10/07 03:35:59;;;;;;;3.90;1.08;;;33.30;46.70;;;;;;5083575;28;20281;-72
2021/10/07 03:38:29;;;;;;;8.93;1.10;;;33.00;46.20;;;;;;5094162;28;20198;-73
2021/10/07 03:40:58;;;;;;;8.23;1.17;;;32.30;46.50;;;;;;5076345;28;20175;-73
2021/10/07 03:43:25;;;;;;;5.05;1.23;;;32.50;46.50;;;;;;5087450;28;20190;-71
2021/10/07 03:45:53;;;;;;;6.90;1.45;;;32.40;46.70;;;;;;5094309;28;20333;-74
2021/10/07 03:48:20;;;;;;;6.10;1.63;;;32.30;46.70;;;;;;5084957;28;20231;-71
2021/10/07 03:50:47;;;;;;;9.70;1.77;;;32.80;46.40;;;;;;5077046;28;20641;-75
2021/10/07 03:53:15;;;;;;;7.55;1.45;;;33.10;46.40;;;;;;5090287;28;20227;-72
2021/10/07 03:55:43;;;;;;;8.07;1.70;;;33.30;45.70;;;;;;5095494;28;20483;-76
2021/10/07 03:58:10;;;;;;;10.65;1.42;;;33.50;45.20;;;;;;5093898;28;20175;-73
2021/10/07 04:00:38;;;;;;;4.68;1.38;;;33.50;45.20;;;;;;5086119;28;20269;-73
2021/10/07 04:03:05;;;;;;;7.45;1.60;;;33.60;45.10;;;;;;5089359;28;20178;-74
2021/10/07 04:05:34;;;;;;;7.65;1.90;;;33.10;44.70;;;;;;5094494;28;20714;-72
2021/10/07 04:08:04;;;;;;;8.95;1.30;;;32.90;45.20;;;;;;5089026;28;20214;-73
2021/10/07 04:10:32;;;;;;;8.48;1.50;;;33.40;45.60;;;;;;5090700;28;20657;-70
2021/10/07 04:13:00;;;;;;;6.07;1.58;;;33.70;45.40;;;;;;5091990;28;20301;-73
2021/10/07 04:15:27;;;;;;;8.85;1.38;;;33.90;45.40;;;;;;5085138;28;20188;-73
2021/10/07 04:17:55;;;;;;;7.85;1.67;;;33.80;44.80;;;;;;5090958;28;20237;-71
2021/10/07 04:20:22;;;;;;;11.27;1.63;;;33.70;44.50;;;;;;5094407;28;20237;-72
2021/10/07 04:22:49;;;;;;;12.98;2.13;;;33.80;44.60;;;;;;5087877;28;20198;-72
2021/10/07 04:25:17;;;;;;;11.90;1.85;;;33.50;44.20;;;;;;5087120;28;20274;-71
2021/10/07 04:27:45;;;;;;;9.90;1.88;;;33.30;44.40;;;;;;5087678;28;20261;-70
2021/10/07 04:30:12;;;;;;;12.43;1.83;;;33.80;44.70;;;;;;5090227;28;20185;-71
2021/10/07 04:32:40;;;;;;;6.35;1.45;;;33.50;43.60;;;;;;5090520;28;20179;-71
2021/10/07 04:35:07;;;;;;;7.72;1.60;;;33.60;43.80;;;;;;5090297;28;20202;-70
2021/10/07 04:37:35;;;;;;;9.07;1.20;;;33.40;44.00;;;;;;5089988;28;20622;-71
2021/10/07 04:40:02;;;;;;;9.88;2.03;;;33.60;44.20;;;;;;5089941;28;20279;-76
2021/10/07 04:42:30;;;;;;;11.55;2.10;;;33.40;43.80;;;;;;5094850;28;20261;-71
2021/10/07 04:44:57;;;;;;;8.90;1.90;;;33.50;44.40;;;;;;5092282;28;20183;-70
2021/10/07 04:47:25;;;;;;;10.38;1.88;;;33.80;43.70;;;;;;5091454;28;20170;-70
2021/10/07 04:49:52;;;;;;;11.27;2.42;;;33.90;43.90;;;;;;5089641;28;20170;-71
2021/10/07 04:52:19;;;;;;;16.27;1.60;;;33.70;43.70;;;;;;5089779;28;20174;-68
2021/10/07 04:54:46;;;;;;;13.25;2.10;;;33.40;44.20;;;;;;5087909;28;20269;-70
2021/10/07 04:57:14;;;;;;;5.10;1.58;;;33.30;44.20;;;;;;5094412;28;20644;-73
2021/10/07 04:59:41;;;;;;;4.65;1.75;;;33.20;44.70;;;;;;5087371;28;20219;-72
2021/10/07 05:02:08;;;;;;;9.75;2.40;;;33.40;44.20;;;;;;5087893;28;20185;-70
2021/10/07 05:04:36;;;;;;;11.88;2.10;;;33.80;44.30;;;;;;5094238;28;20635;-71
2021/10/07 05:07:03;;;;;;;5.88;1.80;;;34.20;43.70;;;;;;5092939;28;20536;-73
2021/10/07 05:09:31;;;;;;;9.68;1.90;;;34.10;43.50;;;;;;5091620;28;20194;-69
2021/10/07 05:11:58;;;;;;;8.73;2.15;;;33.90;44.20;;;;;;5092087;28;20337;-72
2021/10/07 05:14:25;;;;;;;12.73;1.63;;;34.30;43.90;;;;;;5082432;28;20187;-74
2021/10/07 05:16:52;;;;;;;4.13;1.38;;;34.20;43.40;;;;;;5088788;28;20559;-70
2021/10/07 05:19:20;;;;;;;9.07;1.83;;;34.40;43.80;;;;;;5082890;28;20230;-69
2021/10/07 05:21:48;;;;;;;12.55;2.28;;;34.70;43.50;;;;;;5087957;28;20202;-71
2021/10/07 05:24:15;;;;;;;10.48;2.13;;;34.60;43.60;;;;;;5092954;28;20209;-73
2021/10/07 05:26:43;;;;;;;13.90;1.67;;;34.60;43.70;;;;;;5082771;28;20179;-73
2021/10/07 05:29:10;;;;;;;11.77;2.20;;;33.70;44.40;;;;;;5089325;28;20532;-71
2021/10/07 05:31:37;;;;;;;12.50;1.98;;;33.50;44.40;;;;;;5092563;28;20190;-70
2021/10/07 05:34:05;;;;;;;10.65;1.55;;;34.30;44.60;;;;;;5091699;28;20189;-75
2021/10/07 05:36:33;;;;;;;7.40;1.75;;;34.70;43.70;;;;;;5091039;28;20269;-72
2021/10/07 05:39:00;;;;;;;8.55;1.58;;;34.50;44.40;;;;;;5089883;28;20203;-73
2021/10/07 05:41:27;;;;;;;11.88;2.28;;;34.50;43.70;;;;;;5086328;28;20641;-69
2021/10/07 05:43:54;;;;;;;13.82;2.28;;;34.70;43.50;;;;;;5091808;28;20230;-69
2021/10/07 05:46:23;;;;;;;10.60;1.98;;;34.30;43.50;;;;;;5093688;28;20235;-70
2021/10/07 05:48:50;;;;;;;10.02;1.55;;;34.20;43.60;;;;;;5085673;28;20193;-73
2021/10/07 05:51:19;;;;;;;13.18;1.48;;;34.20;43.50;;;;;;5091924;28;20260;-75
2021/10/07 05:53:47;;;;;;;12.98;1.70;;;34.40;43.90;;;;;;5091295;28;20189;-73
2021/10/07 05:56:14;;;;;;;12.73;3.13;;;34.10;43.80;;;;;;5085343;28;20186;-68
2021/10/07 05:58:41;;;;;;;32.30;4.85;;;32.80;51.40;;;;;;5091989;28;20217;-75
2021/10/07 06:01:08;;;;;;;21.95;4.80;;;30.30;58.20;;;;;;5084563;28;20228;-72
2021/10/07 06:03:36;;;;;;;31.53;5.07;;;27.50;65.30;;;;;;5085657;28;20688;-72
2021/10/07 06:06:04;;;;;;;33.10;5.73;;;26.40;70.40;;;;;;5092147;28;20239;-69
2021/10/07 06:08:31;;;;;;;39.07;5.87;;;25.50;74.40;;;;;;5089830;28;20273;-71
2021/10/07 06:11:02;;;;;;;39.40;6.90;;;24.70;78.40;;;;;;5087165;28;20189;-69
2021/10/07 06:13:29;;;;;;;54.47;7.53;;;24.40;81.70;;;;;;5089128;28;20182;-71
2021/10/07 06:15:57;;;;;;;48.97;6.80;;;23.90;85.30;;;;;;5092412;28;20232;-73
2021/10/07 06:18:24;;;;;;;48.47;6.73;;;23.10;90.40;;;;;;5091725;28;20537;-69
2021/10/07 06:20:52;;;;;;;36.70;6.60;;;23.20;93.50;;;;;;5092692;28;20193;-73
2021/10/07 06:23:19;;;;;;;32.63;6.30;;;23.20;94.60;;;;;;5088075;28;20218;-68
2021/10/07 06:25:47;;;;;;;38.87;6.57;;;22.70;97.40;;;;;;5090753;28;20175;-69
2021/10/07 06:28:14;;;;;;;59.57;8.57;;;22.20;99.90;;;;;;5089142;28;20182;-70
2021/10/07 06:30:41;;;;;;;38.70;6.03;;;21.70;99.90;;;;;;5092092;28;20182;-71
2021/10/07 06:33:09;;;;;;;103.83;10.90;;;21.30;99.90;;;;;;5088600;28;20186;-74
2021/10/07 06:35:36;;;;;;;39.60;6.97;;;21.00;99.90;;;;;;5091252;28;20182;-71
2021/10/07 06:38:04;;;;;;;59.60;8.73;;;20.80;99.90;;;;;;5091121;28;20205;-73
2021/10/07 06:40:32;;;;;;;55.30;8.13;;;21.00;99.90;;;;;;5088935;28;20210;-73
2021/10/07 06:42:59;;;;;;;38.80;7.33;;;20.70;99.90;;;;;;5088354;28;20560;-75
2021/10/07 06:45:28;;;;;;;45.53;7.80;;;20.50;99.90;;;;;;5090519;28;20182;-75
2021/10/07 06:47:55;;;;;;;39.00;6.67;;;20.60;99.90;;;;;;5089780;28;20206;-74
2021/10/07 06:50:22;;;;;;;44.87;7.00;;;20.60;99.90;;;;;;5091823;28;20179;-72
2021/10/07 06:52:50;;;;;;;42.17;6.70;;;20.20;99.90;;;;;;5089471;28;20201;-73
2021/10/07 06:55:17;;;;;;;43.23;7.53;;;20.00;99.90;;;;;;5089107;28;20183;-73
2021/10/07 06:57:45;;;;;;;40.37;7.00;;;19.90;99.90;;;;;;5091157;28;20652;-72
2021/10/07 07:00:12;;;;;;;44.30;6.73;;;20.30;99.90;;;;;;5090054;28;20268;-75
2021/10/07 07:02:41;;;;;;;34.60;5.67;;;20.70;99.90;;;;;;5090771;28;20290;-71
2021/10/07 07:05:10;;;;;;;45.17;7.23;;;21.00;99.90;;;;;;5091537;28;20549;-74
2021/10/07 07:07:38;;;;;;;39.07;6.07;;;21.10;99.90;;;;;;5090238;28;20219;-65
2021/10/07 07:10:06;;;;;;;60.40;6.70;;;20.80;99.90;;;;;;5091448;28;20271;-73
2021/10/07 07:12:33;;;;;;;33.10;5.40;;;20.50;99.90;;;;;;5091901;28;20230;-71
2021/10/07 07:15:00;;;;;;;38.10;5.77;;;20.20;99.90;;;;;;5092056;28;20167;-71
2021/10/07 07:17:28;;;;;;;33.93;6.07;;;19.90;99.90;;;;;;5070641;28;20268;-71
2021/10/07 07:19:58;;;;;;;34.47;5.23;;;19.80;99.90;;;;;;5079499;28;20661;-72
2021/10/07 07:22:25;;;;;;;35.17;5.67;;;19.80;99.90;;;;;;5092905;28;20187;-70
2021/10/07 07:24:52;;;;;;;32.00;5.97;;;19.90;99.90;;;;;;5092635;28;20258;-71
2021/10/07 07:27:20;;;;;;;38.43;8.07;;;19.80;99.90;;;;;;5085505;28;20179;-73
2021/10/07 07:29:47;;;;;;;29.40;5.40;;;19.60;99.90;;;;;;5091487;28;20178;-73
2021/10/07 07:32:15;;;;;;;35.07;5.53;;;19.60;99.90;;;;;;5082681;28;20170;-75
2021/10/07 07:34:43;;;;;;;35.47;5.73;;;19.40;99.90;;;;;;5071171;28;20584;-71
2021/10/07 07:37:10;;;;;;;39.67;5.80;;;19.30;99.90;;;;;;5090790;28;20178;-73
2021/10/07 07:39:38;;;;;;;39.73;6.27;;;19.30;99.90;;;;;;5091758;28;20206;-68
2021/10/07 07:42:05;;;;;;;30.03;5.80;;;19.20;99.90;;;;;;5089013;28;20182;-74
2021/10/07 07:44:32;;;;;;;42.30;6.63;;;19.10;99.90;;;;;;5091549;28;20194;-74
2021/10/07 07:47:00;;;;;;;32.47;5.67;;;18.90;99.90;;;;;;5085729;28;20213;-72
2021/10/07 07:49:27;;;;;;;33.77;5.93;;;18.90;99.90;;;;;;5077862;28;20266;-76
2021/10/07 07:51:55;;;;;;;22.27;4.50;;;18.70;99.90;;;;;;5092356;28;20481;-73
2021/10/07 07:54:22;;;;;;;30.57;6.97;;;18.60;99.90;;;;;;5092045;28;20613;-72
2021/10/07 07:56:49;;;;;;;37.93;5.70;;;18.60;99.90;;;;;;5090719;28;20182;-72
2021/10/07 07:59:17;;;;;;;32.03;5.13;;;18.50;99.90;;;;;;5077145;28;20210;-72
2021/10/07 08:01:44;;;;;;;33.00;5.53;;;18.50;99.90;;;;;;5087083;28;20269;-75
2021/10/07 08:04:11;;;;;;;33.90;5.73;;;18.50;99.90;;;;;;5091148;28;20759;-74
2021/10/07 08:06:39;;;;;;;32.00;5.33;;;18.40;99.90;;;;;;5089827;28;20247;-71
2021/10/07 08:09:08;;;;;;;31.17;5.17;;;18.40;99.90;;;;;;5091222;28;21937;-74
2021/10/07 08:11:39;;;;;;;32.53;4.87;;;18.30;99.90;;;;;;5075672;28;20572;-68
2021/10/07 08:14:08;;;;;;;34.30;5.70;;;18.40;99.90;;;;;;5077293;28;20237;-68
2021/10/07 08:16:37;;;;;;;33.60;5.13;;;18.30;99.90;;;;;;5077201;28;20182;-69
2021/10/07 08:19:05;;;;;;;35.50;5.57;;;18.20;99.90;;;;;;5073290;28;20221;-68
2021/10/07 08:21:32;;;;;;;36.33;5.23;;;18.20;99.90;;;;;;5071141;28;20167;-69
2021/10/07 08:24:05;;;;;;;28.93;5.37;;;18.30;99.90;;;;;;5090228;28;20656;-71
2021/10/07 08:26:32;;;;;;;37.00;5.87;;;18.20;99.90;;;;;;5091871;28;20178;-73
2021/10/07 08:29:00;;;;;;;32.03;5.23;;;18.10;99.90;;;;;;5085123;28;20254;-72
2021/10/07 08:31:27;;;;;;;33.50;5.87;;;18.10;99.90;;;;;;5093022;28;20190;-73
2021/10/07 08:33:55;;;;;;;28.07;5.23;;;18.00;99.90;;;;;;5090901;28;20587;-73
2021/10/07 08:36:22;;;;;;;39.97;6.67;;;18.00;99.90;;;;;;5095667;28;20187;-72
2021/10/07 08:38:50;;;;;;;32.07;5.33;;;18.00;99.90;;;;;;5095381;28;20202;-72
2021/10/07 08:41:17;;;;;;;28.17;5.10;;;17.90;99.90;;;;;;5085099;28;20187;-73
2021/10/07 08:43:50;;;;;;;26.87;5.33;;;17.90;99.90;;;;;;5085959;28;20634;-73
2021/10/07 08:46:19;;;;;;;30.53;5.53;;;17.90;99.90;;;;;;5081887;28;20550;-72
2021/10/07 08:48:47;;;;;;;28.90;5.50;;;17.90;99.90;;;;;;5078506;28;20214;-73
2021/10/07 08:51:14;;;;;;;27.80;4.97;;;18.00;99.90;;;;;;5094090;28;20189;-69
2021/10/07 08:53:42;;;;;;;31.50;5.33;;;17.90;99.90;;;;;;5094901;28;20197;-68
2021/10/07 08:56:09;;;;;;;30.83;5.63;;;17.90;99.90;;;;;;5094086;28;20663;-68
2021/10/07 08:58:37;;;;;;;29.73;4.70;;;17.90;99.90;;;;;;5093851;28;20218;-69
2021/10/07 09:01:05;;;;;;;34.13;5.23;;;17.90;99.90;;;;;;5081939;28;20216;-71
2021/10/07 09:03:41;;;;;;;31.43;5.60;;;17.80;99.90;;;;;;5094894;28;20170;-68
2021/10/07 09:06:15;;;;;;;29.30;5.03;;;17.70;99.90;;;;;;5076741;28;20259;-71
2021/10/07 09:08:53;;;;;;;39.07;6.90;;;17.70;99.90;;;;;;5090416;28;20190;-68
2021/10/07 09:11:31;;;;;;;36.07;7.80;;;17.80;99.90;;;;;;5089777;28;20271;-69
2021/10/07 09:14:02;;;;;;;28.40;6.30;;;17.80;99.90;;;;;;5076658;28;20202;-71
2021/10/07 09:16:34;;;;;;;41.13;5.40;;;17.80;99.90;;;;;;5090952;28;20174;-71
2021/10/07 09:19:16;;;;;;;30.20;5.73;;;17.80;99.90;;;;;;5093845;28;20213;-69
2021/10/07 09:21:44;;;;;;;24.43;5.47;;;17.80;99.90;;;;;;5093743;28;20174;-70
2021/10/07 09:24:35;;;;;;;27.23;5.03;;;17.90;99.90;;;;;;5094558;28;20175;-68
2021/10/07 09:27:11;;;;;;;27.77;5.00;;;17.80;99.90;;;;;;5090437;28;20178;-70
2021/10/07 09:29:46;;;;;;;32.00;5.03;;;17.80;99.90;;;;;;5094086;28;20197;-70
2021/10/07 09:32:15;;;;;;;29.97;4.77;;;17.70;99.90;;;;;;5094756;28;20694;-71
2021/10/07 09:34:51;;;;;;;25.97;4.60;;;17.70;99.90;;;;;;5094154;28;20175;-69
2021/10/07 09:37:41;;;;;;;39.53;11.63;;;17.80;99.90;;;;;;5092044;28;20551;-72
2021/10/07 09:40:24;;;;;;;34.73;6.00;;;17.90;99.90;;;;;;5081547;28;20266;-68
2021/10/07 09:42:54;;;;;;;32.90;5.27;;;17.90;99.90;;;;;;5094283;28;20644;-73
2021/10/07 09:45:31;;;;;;;27.80;4.17;;;17.90;99.90;;;;;;5093937;28;20174;-74
2021/10/07 09:48:04;;;;;;;25.70;4.87;;;17.90;99.90;;;;;;5088066;28;20201;-70
2021/10/07 09:50:40;;;;;;;30.20;6.50;;;18.00;99.90;;;;;;5089397;28;20333;-67
2021/10/07 09:53:11;;;;;;;34.70;5.40;;;17.90;99.90;;;;;;5093104;28;20582;-72
2021/10/07 09:55:40;;;;;;;30.70;5.10;;;17.90;99.90;;;;;;5093893;28;20190;-73
2021/10/07 09:58:15;;;;;;;21.43;4.33;;;17.90;99.90;;;;;;5088782;28;20186;-69
2021/10/07 10:00:51;;;;;;;33.67;4.77;;;17.90;99.90;;;;;;5093718;28;20679;-68
2021/10/07 10:03:19;;;;;;;30.53;6.13;;;17.90;99.90;;;;;;5094050;28;20193;-66
2021/10/07 10:05:48;;;;;;;31.27;4.93;;;17.90;99.90;;;;;;5091976;28;20186;-68
2021/10/07 10:08:18;;;;;;;28.97;5.17;;;17.90;99.90;;;;;;5093429;28;20179;-67
2021/10/07 10:10:47;;;;;;;29.40;4.73;;;17.90;99.90;;;;;;5091174;28;20170;-67
2021/10/07 10:13:16;;;;;;;31.17;6.57;;;18.00;99.90;;;;;;5092127;28;20218;-69
2021/10/07 10:15:44;;;;;;;33.07;4.37;;;18.00;99.90;;;;;;5084723;28;20191;-69
2021/10/07 10:18:16;;;;;;;32.37;5.03;;;17.90;99.90;;;;;;5093536;28;20178;-68
2021/10/07 10:20:52;;;;;;;23.87;4.50;;;17.80;99.90;;;;;;5084578;28;20254;-73
2021/10/07 10:23:25;;;;;;;17.43;3.57;;;17.80;99.90;;;;;;5089713;28;20593;-72
2021/10/07 10:25:59;;;;;;;24.57;4.50;;;17.80;99.90;;;;;;5089847;28;20675;-69
2021/10/07 10:28:53;;;;;;;32.37;10.53;;;17.80;99.90;;;;;;5093418;28;20182;-67
2021/10/07 10:31:39;;;;;;;28.57;6.00;;;17.90;99.90;;;;;;5093213;28;20539;-69
2021/10/07 10:34:17;;;;;;;27.57;4.20;;;17.80;99.90;;;;;;5087334;28;20178;-68
2021/10/07 10:36:57;;;;;;;33.07;4.47;;;17.90;99.90;;;;;;5093046;28;20175;-68
2021/10/07 10:39:39;;;;;;;29.03;4.17;;;17.90;99.90;;;;;;5090886;28;20626;-72
2021/10/07 10:42:26;;;;;;;20.23;4.57;;;17.90;99.90;;;;;;5077236;28;20201;-69
2021/10/07 10:44:56;;;;;;;32.07;4.90;;;17.80;99.90;;;;;;5083133;28;20171;-73
2021/10/07 10:47:42;;;;;;;25.67;4.70;;;17.80;99.90;;;;;;5088743;28;20216;-69
2021/10/07 10:50:13;;;;;;;28.13;5.77;;;17.80;99.90;;;;;;5093221;28;20177;-73
2021/10/07 10:52:59;;;;;;;22.43;3.77;;;17.80;99.90;;;;;;5089958;28;20209;-70
2021/10/07 10:55:29;;;;;;;25.60;4.50;;;17.80;99.90;;;;;;5079743;28;20177;-70
2021/10/07 10:58:07;;;;;;;20.07;3.47;;;17.80;99.90;;;;;;5079485;28;20212;-68
2021/10/07 11:00:43;;;;;;;33.67;4.67;;;17.80;99.90;;;;;;5088154;28;20317;-71
2021/10/07 11:03:19;;;;;;;22.57;4.53;;;17.80;99.90;;;;;;5093127;28;20945;-70
2021/10/07 11:06:04;;;;;;;26.73;3.77;;;17.80;99.90;;;;;;5083084;28;20189;-70
2021/10/07 11:08:42;;;;;;;25.07;4.50;;;17.80;99.90;;;;;;5092315;28;20193;-71
2021/10/07 11:11:22;;;;;;;22.30;4.90;;;17.80;99.90;;;;;;5092364;28;20591;-72
2021/10/07 11:13:49;;;;;;;27.27;5.03;;;17.70;99.90;;;;;;5089878;28;20192;-72
2021/10/07 11:16:18;;;;;;;29.43;5.40;;;17.70;99.90;;;;;;5084443;28;20178;-68
2021/10/07 11:18:47;;;;;;;26.80;5.30;;;17.70;99.90;;;;;;5091160;28;20212;-69
2021/10/07 11:21:22;;;;;;;25.03;4.77;;;17.70;99.90;;;;;;5092269;28;20273;-66
2021/10/07 11:23:52;;;;;;;29.97;4.50;;;17.70;99.90;;;;;;5085887;28;20194;-69
2021/10/07 11:26:22;;;;;;;28.63;5.47;;;17.70;99.90;;;;;;5082029;28;20186;-70
2021/10/07 11:28:50;;;;;;;35.07;5.40;;;17.70;99.90;;;;;;5092683;28;21072;-70
2021/10/07 11:31:21;;;;;;;24.40;4.37;;;17.60;99.90;;;;;;5092356;28;20182;-69
2021/10/07 11:33:54;;;;;;;32.47;4.73;;;17.60;99.90;;;;;;5092465;28;20640;-68
2021/10/07 11:36:27;;;;;;;23.20;4.27;;;17.60;99.90;;;;;;5088870;28;20682;-69
2021/10/07 11:38:56;;;;;;;25.83;3.97;;;17.60;99.90;;;;;;5092496;28;20741;-69
2021/10/07 11:41:31;;;;;;;28.13;5.17;;;17.60;99.90;;;;;;5082540;28;20269;-69
2021/10/07 11:44:05;;;;;;;26.40;4.37;;;17.70;99.90;;;;;;5077274;28;20212;-68
2021/10/07 11:46:36;;;;;;;25.60;4.83;;;17.60;99.90;;;;;;5084670;28;20272;-70
2021/10/07 11:49:05;;;;;;;28.23;4.20;;;17.60;99.90;;;;;;5078163;28;20183;-69
2021/10/07 11:51:33;;;;;;;28.57;4.83;;;17.60;99.90;;;;;;5092464;28;20629;-72
2021/10/07 11:54:04;;;;;;;26.87;5.27;;;17.60;99.90;;;;;;5092266;28;20215;-68
2021/10/07 11:56:34;;;;;;;20.93;4.10;;;17.60;99.90;;;;;;5091452;28;20170;-69
2021/10/07 11:59:04;;;;;;;28.23;4.27;;;17.60;99.90;;;;;;5085055;28;20225;-68
2021/10/07 12:01:34;;;;;;;23.73;3.97;;;17.60;99.90;;;;;;5094670;28;20182;-70
2021/10/07 12:04:04;;;;;;;29.83;4.27;;;17.60;99.90;;;;;;5089732;28;20190;-69
2021/10/07 12:06:34;;;;;;;20.90;3.93;;;17.60;99.90;;;;;;5092473;28;20238;-69
2021/10/07 12:09:04;;;;;;;20.37;3.63;;;17.70;99.90;;;;;;5089670;28;20179;-72
2021/10/07 12:11:32;;;;;;;21.10;4.60;;;17.70;99.90;;;;;;5081992;28;20271;-72
2021/10/07 12:14:02;;;;;;;20.97;3.87;;;17.60;99.90;;;;;;5095927;28;20182;-69
2021/10/07 12:16:31;;;;;;;29.10;4.67;;;17.60;99.90;;;;;;5095709;28;20263;-69
2021/10/07 12:19:05;;;;;;;21.90;3.27;;;17.70;99.90;;;;;;5096090;28;20660;-69
2021/10/07 12:21:35;;;;;;;28.03;4.27;;;17.70;99.90;;;;;;5090644;28;20662;-71
2021/10/07 12:24:07;;;;;;;24.63;4.03;;;17.70;99.90;;;;;;5095749;28;20186;-72
2021/10/07 12:26:39;;;;;;;26.67;4.27;;;17.70;99.90;;;;;;5086883;28;20182;-72
2021/10/07 12:29:15;;;;;;;20.63;3.60;;;17.70;99.90;;;;;;5095815;28;20191;-69
2021/10/07 12:31:56;;;;;;;18.50;3.30;;;17.60;99.90;;;;;;5089472;28;20189;-70
2021/10/07 12:34:38;;;;;;;23.70;3.57;;;17.60;99.90;;;;;;5092610;28;20247;-68
2021/10/07 12:37:08;;;;;;;20.43;4.83;;;17.60;99.90;;;;;;5095610;28;20185;-69
2021/10/07 12:39:37;;;;;;;21.60;3.90;;;17.60;99.90;;;;;;5095385;28;20275;-68
2021/10/07 12:42:05;;;;;;;25.73;3.90;;;17.50;99.90;;;;;;5085677;28;20194;-68
2021/10/07 12:44:37;;;;;;;22.87;3.43;;;17.60;99.90;;;;;;5095641;28;20261;-69
2021/10/07 12:47:09;;;;;;;23.80;3.80;;;17.60;99.90;;;;;;5080599;28;20260;-68
2021/10/07 12:49:48;;;;;;;24.80;3.70;;;17.50;99.90;;;;;;5095560;28;20678;-68
2021/10/07 12:52:26;;;;;;;20.90;4.03;;;17.60;99.90;;;;;;5094906;28;20206;-70
2021/10/07 12:55:21;;;;;;;23.83;4.37;;;17.60;99.90;;;;;;5095115;28;20231;-72
2021/10/07 12:57:54;;;;;;;29.10;3.77;;;17.50;99.90;;;;;;5089477;28;20254;-68